createdAt,value
2019-05-26T00:00:36.062Z,1.25
2019-05-26T00:03:06.028Z,1.10
2019-05-26T00:05:35.925Z,0.90
2019-05-26T00:08:05.890Z,1.20
2019-05-26T00:10:35.933Z,1.00
2019-05-26T00:13:06.059Z,1.05
2019-05-26T00:15:36.347Z,0.70
2019-05-26T00:18:06.256Z,1.07
2019-05-26T00:20:36.203Z,0.90
2019-05-26T00:23:06.186Z,1.17
2019-05-26T00:25:36.451Z,1.00
2019-05-26T00:28:06.494Z,1.12
2019-05-26T00:30:36.387Z,1.00
2019-05-26T00:33:06.362Z,1.10
2019-05-26T00:35:36.550Z,2.10
2019-05-26T00:38:06.626Z,1.72
2019-05-26T00:40:36.530Z,1.90
2019-05-26T00:43:06.532Z,1.60
2019-05-26T00:45:37.151Z,1.62
2019-05-26T00:48:07.495Z,1.50
2019-05-26T00:50:37.404Z,1.65
2019-05-26T00:53:07.428Z,2.55
2019-05-26T00:55:37.469Z,3.87
2019-05-26T00:58:07.564Z,2.25
2019-05-26T01:00:41.899Z,1.95
2019-05-26T01:03:12.776Z,2.25
2019-05-26T01:05:42.790Z,2.02
2019-05-26T01:08:12.881Z,2.20
2019-05-26T01:10:42.926Z,2.02
2019-05-26T01:13:12.793Z,2.72
2019-05-26T01:15:44.450Z,2.42
2019-05-26T01:18:14.293Z,2.92
2019-05-26T01:20:44.308Z,2.20
2019-05-26T01:23:15.238Z,2.20
2019-05-26T01:25:45.052Z,2.20
2019-05-26T01:28:15.056Z,1.60
2019-05-26T01:30:45.472Z,1.75
2019-05-26T01:33:15.653Z,1.65
2019-05-26T01:35:46.135Z,1.55
2019-05-26T01:38:23.961Z,1.42
2019-05-26T01:40:48.561Z,1.20
2019-05-26T01:43:18.962Z,1.30
2019-05-26T01:45:48.974Z,1.50
2019-05-26T01:48:19.506Z,0.95
2019-05-26T01:50:49.307Z,1.35
2019-05-26T01:53:19.215Z,0.80
2019-05-26T01:55:49.454Z,0.88
2019-05-26T01:58:19.582Z,0.68
2019-05-26T02:00:49.527Z,0.93
2019-05-26T02:03:19.394Z,0.85
2019-05-26T02:05:49.475Z,0.62
2019-05-26T02:08:19.514Z,0.60
2019-05-26T02:10:49.810Z,0.93
2019-05-26T02:13:21.530Z,0.70
2019-05-26T02:15:51.336Z,0.70
2019-05-26T02:18:21.402Z,0.85
2019-05-26T02:20:51.349Z,0.62
2019-05-26T02:23:21.270Z,0.65
2019-05-26T02:25:51.152Z,0.95
2019-05-26T02:28:21.123Z,1.37
2019-05-26T02:30:51.010Z,0.85
2019-05-26T02:33:21.017Z,0.70
2019-05-26T02:35:52.030Z,0.60
2019-05-26T02:38:25.879Z,0.75
2019-05-26T02:40:53.521Z,0.80
2019-05-26T02:43:23.315Z,0.80
2019-05-26T02:45:53.237Z,0.80
2019-05-26T02:48:23.063Z,0.82
2019-05-26T02:50:53.029Z,0.70
2019-05-26T02:53:28.074Z,0.80
2019-05-26T02:55:58.737Z,0.70
2019-05-26T02:58:28.677Z,0.50
2019-05-26T03:00:58.856Z,0.53
2019-05-26T03:03:28.812Z,0.70
2019-05-26T03:05:59.473Z,0.60
2019-05-26T03:08:29.879Z,0.95
2019-05-26T03:11:01.323Z,0.70
2019-05-26T03:13:35.702Z,0.90
2019-05-26T03:16:06.114Z,0.90
2019-05-26T03:18:38.606Z,0.98
2019-05-26T03:21:09.977Z,0.70
2019-05-26T03:23:41.997Z,0.95
2019-05-26T03:26:12.578Z,0.80
2019-05-26T03:28:42.714Z,0.68
2019-05-26T03:31:12.678Z,0.65
2019-05-26T03:33:42.561Z,0.68
2019-05-26T03:36:12.612Z,0.60
2019-05-26T03:38:42.854Z,0.60
2019-05-26T03:41:13.719Z,0.57
2019-05-26T03:43:43.848Z,0.80
2019-05-26T03:46:22.956Z,0.62
2019-05-26T03:48:52.808Z,0.93
2019-05-26T03:51:23.762Z,0.80
2019-05-26T03:53:53.533Z,0.68
2019-05-26T03:56:24.019Z,0.50
2019-05-26T03:58:54.936Z,0.57
2019-05-26T04:01:24.878Z,0.75
2019-05-26T04:03:54.671Z,0.70
2019-05-26T04:06:24.466Z,0.80
2019-05-26T04:08:54.321Z,0.57
2019-05-26T04:11:24.080Z,0.80
2019-05-26T04:13:54.098Z,0.88
2019-05-26T04:16:24.279Z,0.65
2019-05-26T04:18:54.080Z,0.72
2019-05-26T04:21:23.921Z,0.60
2019-05-26T04:23:54.167Z,0.65
2019-05-26T04:26:24.029Z,0.65
2019-05-26T04:28:53.840Z,0.53
2019-05-26T04:31:23.738Z,0.70
2019-05-26T04:33:53.510Z,0.68
2019-05-26T04:36:23.346Z,0.70
2019-05-26T04:38:53.499Z,0.82
2019-05-26T04:41:23.364Z,0.90
2019-05-26T04:43:53.187Z,0.90
2019-05-26T04:46:23.166Z,0.53
2019-05-26T04:48:53.524Z,1.00
2019-05-26T04:51:23.710Z,0.80
2019-05-26T04:53:53.599Z,0.70
2019-05-26T04:56:23.594Z,0.80
2019-05-26T04:58:53.591Z,1.95
2019-05-26T05:01:23.477Z,1.10
2019-05-26T05:03:53.408Z,0.78
2019-05-26T05:06:23.633Z,0.80
2019-05-26T05:08:53.531Z,0.93
2019-05-26T05:11:23.435Z,0.90
2019-05-26T05:13:54.404Z,0.70
2019-05-26T05:16:24.653Z,1.12
2019-05-26T05:18:54.778Z,0.93
2019-05-26T05:21:24.527Z,1.00
2019-05-26T05:23:54.469Z,0.90
2019-05-26T05:26:25.343Z,1.12
2019-05-26T05:28:55.296Z,1.00
2019-05-26T05:31:25.186Z,1.07
2019-05-26T05:33:55.153Z,0.90
2019-05-26T05:36:25.933Z,1.00
2019-05-26T05:38:55.913Z,1.57
2019-05-26T05:41:26.083Z,1.62
2019-05-26T05:43:55.920Z,1.10
2019-05-26T05:46:25.961Z,1.27
2019-05-26T05:48:55.821Z,0.98
2019-05-26T05:51:25.713Z,1.00
2019-05-26T05:53:56.269Z,1.05
2019-05-26T05:56:26.238Z,0.95
2019-05-26T05:58:56.202Z,0.90
2019-05-26T06:01:26.049Z,0.88
2019-05-26T06:03:57.594Z,1.00
2019-05-26T06:06:27.517Z,1.10
2019-05-26T06:08:57.452Z,1.40
2019-05-26T06:11:27.284Z,1.05
2019-05-26T06:13:57.243Z,1.12
2019-05-26T06:16:27.247Z,1.37
2019-05-26T06:18:57.217Z,1.60
2019-05-26T06:21:27.558Z,0.93
2019-05-26T06:23:58.054Z,1.00
2019-05-26T06:26:27.868Z,1.25
2019-05-26T06:28:57.867Z,0.90
2019-05-26T06:31:27.935Z,1.10
2019-05-26T06:33:58.121Z,1.30
2019-05-26T06:36:27.958Z,1.15
2019-05-26T06:38:57.965Z,1.00
2019-05-26T06:41:33.350Z,0.90
2019-05-26T06:44:01.267Z,1.95
2019-05-26T06:46:31.501Z,1.17
2019-05-26T06:49:01.470Z,1.67
2019-05-26T06:51:31.615Z,2.30
2019-05-26T06:54:02.071Z,1.37
2019-05-26T06:56:32.032Z,1.47
2019-05-26T06:59:03.208Z,1.70
2019-05-26T07:01:33.185Z,1.37
2019-05-26T07:04:03.076Z,0.90
2019-05-26T07:06:33.200Z,2.30
2019-05-26T07:09:05.777Z,1.67
2019-05-26T07:11:50.088Z,1.62
2019-05-26T07:14:07.624Z,1.40
2019-05-26T07:16:38.860Z,1.80
2019-05-26T07:19:08.870Z,1.85
2019-05-26T07:21:39.192Z,1.62
2019-05-26T07:24:09.825Z,1.40
2019-05-26T07:26:40.040Z,1.80
2019-05-26T07:29:09.909Z,2.10
2019-05-26T07:31:40.045Z,2.50
2019-05-26T07:34:10.300Z,3.37
2019-05-26T07:36:40.101Z,3.58
2019-05-26T07:39:10.515Z,2.40
2019-05-26T07:41:40.445Z,2.77
2019-05-26T07:44:10.449Z,2.40
2019-05-26T07:46:40.340Z,1.90
2019-05-26T07:49:10.152Z,3.12
2019-05-26T07:51:39.977Z,3.60
2019-05-26T07:54:24.658Z,4.42
2019-05-26T07:56:41.846Z,5.95
2019-05-26T07:59:11.720Z,4.15
2019-05-26T08:01:42.080Z,4.62
2019-05-26T08:04:12.047Z,4.92
2019-05-26T08:06:42.333Z,2.92
2019-05-26T08:09:13.092Z,2.90
2019-05-26T08:11:42.948Z,3.35
2019-05-26T08:14:12.835Z,3.45
2019-05-26T08:16:42.675Z,3.58
2019-05-26T08:19:12.696Z,2.98
2019-05-26T08:21:42.567Z,3.50
2019-05-26T08:24:12.886Z,2.83
2019-05-26T08:26:43.874Z,2.40
2019-05-26T08:29:13.710Z,3.70
2019-05-26T08:31:43.574Z,2.70
2019-05-26T08:34:13.468Z,1.90
2019-05-26T08:36:43.280Z,2.60
2019-05-26T08:39:13.423Z,3.22
2019-05-26T08:41:43.436Z,2.90
2019-05-26T08:44:13.496Z,2.98
2019-05-26T08:46:43.641Z,2.40
2019-05-26T08:49:13.692Z,2.77
2019-05-26T08:51:43.686Z,2.60
2019-05-26T08:54:13.616Z,2.58
2019-05-26T08:56:43.413Z,2.33
2019-05-26T08:59:13.304Z,1.55
2019-05-26T09:01:43.088Z,1.42
2019-05-26T09:04:13.266Z,2.10
2019-05-26T09:06:43.727Z,2.65
2019-05-26T09:09:17.469Z,2.50
2019-05-26T09:11:48.316Z,2.62
2019-05-26T09:14:18.215Z,2.50
2019-05-26T09:16:48.096Z,1.57
2019-05-26T09:19:18.212Z,2.25
2019-05-26T09:21:48.031Z,3.08
2019-05-26T09:24:18.351Z,3.50
2019-05-26T09:26:48.237Z,2.55
2019-05-26T09:29:18.072Z,2.50
2019-05-26T09:31:48.406Z,2.10
2019-05-26T09:34:18.424Z,1.82
2019-05-26T09:36:48.262Z,1.80
2019-05-26T09:39:18.575Z,1.72
2019-05-26T09:41:57.932Z,2.75
2019-05-26T09:44:28.071Z,1.80
2019-05-26T09:46:57.963Z,1.98
2019-05-26T09:49:28.020Z,2.50
2019-05-26T09:51:58.004Z,2.80
2019-05-26T09:54:28.609Z,2.47
2019-05-26T09:56:58.509Z,1.82
2019-05-26T09:59:28.384Z,2.80
2019-05-26T10:01:58.519Z,1.30
2019-05-26T10:04:28.382Z,2.77
2019-05-26T10:06:58.339Z,2.70
2019-05-26T10:09:28.299Z,3.62
2019-05-26T10:11:58.580Z,2.50
2019-05-26T10:14:28.590Z,2.08
2019-05-26T10:16:58.563Z,1.40
2019-05-26T10:19:28.500Z,1.92
2019-05-26T10:21:58.570Z,1.87
2019-05-26T10:24:28.566Z,2.30
2019-05-26T10:26:58.503Z,2.00
2019-05-26T10:29:28.372Z,2.20
2019-05-26T10:31:58.588Z,2.40
2019-05-26T10:34:28.378Z,2.80
2019-05-26T10:36:58.425Z,2.67
2019-05-26T10:39:28.341Z,2.05
2019-05-26T10:41:59.237Z,2.30
2019-05-26T10:44:29.003Z,3.50
2019-05-26T10:46:59.243Z,2.47
2019-05-26T10:49:29.407Z,1.70
2019-05-26T10:51:59.456Z,2.00
2019-05-26T10:54:29.485Z,2.52
2019-05-26T10:56:59.241Z,2.10
2019-05-26T10:59:31.133Z,2.50
2019-05-26T11:02:00.896Z,2.50
2019-05-26T11:04:30.707Z,1.80
2019-05-26T11:07:00.895Z,1.90
2019-05-26T11:09:31.814Z,1.85
2019-05-26T11:12:02.264Z,2.75
2019-05-26T11:14:32.179Z,2.15
2019-05-26T11:17:02.655Z,1.98
2019-05-26T11:19:32.553Z,2.10
2019-05-26T11:22:02.500Z,1.87
2019-05-26T11:24:32.405Z,1.95
2019-05-26T11:27:10.020Z,2.10
2019-05-26T11:29:34.408Z,1.42
2019-05-26T11:32:04.506Z,1.65
2019-05-26T11:34:34.520Z,1.30
2019-05-26T11:37:04.657Z,2.05
2019-05-26T11:39:34.484Z,1.10
2019-05-26T11:42:12.821Z,0.90
2019-05-26T11:44:36.032Z,1.82
2019-05-26T11:47:06.534Z,1.90
2019-05-26T11:49:36.433Z,1.20
2019-05-26T11:52:06.550Z,1.02
2019-05-26T11:54:36.663Z,1.17
2019-05-26T11:57:06.603Z,1.40
2019-05-26T11:59:37.539Z,1.50
2019-05-26T12:02:07.436Z,2.25
2019-05-26T12:04:37.787Z,1.47
2019-05-26T12:07:07.738Z,1.12
2019-05-26T12:09:37.606Z,1.50
2019-05-26T12:12:07.633Z,1.80
2019-05-26T12:14:37.686Z,1.57
2019-05-26T12:17:07.526Z,1.65
2019-05-26T12:19:37.466Z,1.92
2019-05-26T12:22:08.323Z,1.20
2019-05-26T12:24:38.642Z,1.50
2019-05-26T12:27:08.576Z,1.60
2019-05-26T12:29:38.990Z,1.22
2019-05-26T12:32:09.295Z,1.47
2019-05-26T12:34:39.229Z,1.35
2019-05-26T12:37:09.199Z,1.60
2019-05-26T12:39:39.572Z,1.17
2019-05-26T12:42:20.968Z,1.80
2019-05-26T12:44:51.153Z,1.20
2019-05-26T12:47:22.199Z,1.50
2019-05-26T12:49:52.289Z,1.37
2019-05-26T12:52:22.306Z,1.57
2019-05-26T12:54:52.926Z,1.35
2019-05-26T12:57:22.958Z,1.80
2019-05-26T12:59:52.976Z,1.77
2019-05-26T13:02:22.927Z,1.17
2019-05-26T13:04:54.287Z,0.80
2019-05-26T13:07:25.415Z,1.02
2019-05-26T13:09:55.543Z,1.20
2019-05-26T13:12:26.369Z,1.50
2019-05-26T13:15:05.479Z,1.65
2019-05-26T13:17:27.918Z,1.50
2019-05-26T13:19:57.971Z,1.72
2019-05-26T13:22:27.913Z,1.57
2019-05-26T13:24:58.380Z,0.90
2019-05-26T13:27:28.426Z,2.00
2019-05-26T13:29:58.850Z,1.67
2019-05-26T13:32:29.136Z,1.22
2019-05-26T13:34:59.056Z,0.93
2019-05-26T13:37:28.901Z,1.10
2019-05-26T13:39:58.864Z,0.75
2019-05-26T13:42:28.856Z,1.72
2019-05-26T13:44:58.902Z,1.10
2019-05-26T13:47:28.860Z,0.98
2019-05-26T13:49:58.938Z,1.15
2019-05-26T13:52:29.924Z,1.60
2019-05-26T13:54:59.914Z,0.95
2019-05-26T13:57:30.125Z,1.00
2019-05-26T13:59:59.933Z,1.10
2019-05-26T14:02:30.295Z,0.90
2019-05-26T14:05:00.581Z,1.15
2019-05-26T14:07:30.527Z,1.50
2019-05-26T14:10:00.348Z,0.95
2019-05-26T14:12:30.247Z,0.68
2019-05-26T14:15:03.517Z,0.78
2019-05-26T14:17:34.828Z,1.25
2019-05-26T14:20:07.622Z,1.45
2019-05-26T14:22:37.915Z,1.15
2019-05-26T14:25:08.056Z,0.90
2019-05-26T14:27:38.233Z,1.12
2019-05-26T14:30:08.661Z,1.05
2019-05-26T14:32:38.463Z,1.30
2019-05-26T14:35:10.135Z,1.05
2019-05-26T14:37:39.950Z,0.70
2019-05-26T14:40:09.902Z,1.00
2019-05-26T14:42:39.665Z,0.70
2019-05-26T14:45:09.693Z,1.07
2019-05-26T14:47:39.919Z,0.85
2019-05-26T14:50:11.918Z,1.05
2019-05-26T14:52:42.096Z,0.80
2019-05-26T14:55:13.242Z,0.60
2019-05-26T14:57:43.088Z,0.80
2019-05-26T15:00:13.702Z,1.10
2019-05-26T15:02:43.959Z,0.60
2019-05-26T15:05:14.477Z,0.80
2019-05-26T15:07:44.336Z,0.88
2019-05-26T15:10:14.466Z,0.70
2019-05-26T15:12:44.474Z,0.90
2019-05-26T15:15:15.968Z,1.00
2019-05-26T15:17:46.900Z,0.68
2019-05-26T15:20:17.146Z,0.90
2019-05-26T15:22:47.999Z,1.00
2019-05-26T15:25:18.034Z,0.60
2019-05-26T15:27:48.393Z,0.62
2019-05-26T15:30:18.432Z,1.12
2019-05-26T15:32:48.917Z,0.80
2019-05-26T15:35:19.322Z,1.40
2019-05-26T15:37:49.245Z,0.70
2019-05-26T15:40:19.467Z,0.90
2019-05-26T15:42:49.424Z,0.70
2019-05-26T15:45:20.794Z,0.40
2019-05-26T15:47:50.838Z,0.75
2019-05-26T15:50:21.329Z,1.20
2019-05-26T15:52:51.364Z,0.75
2019-05-26T15:55:22.180Z,0.88
2019-05-26T15:57:52.040Z,0.60
2019-05-26T16:00:22.629Z,1.12
2019-05-26T16:02:52.385Z,0.80
2019-05-26T16:05:22.363Z,1.07
2019-05-26T16:07:52.300Z,1.00
2019-05-26T16:10:23.601Z,0.78
2019-05-26T16:12:54.305Z,0.70
2019-05-26T16:15:24.184Z,0.90
2019-05-26T16:17:54.236Z,0.90
2019-05-26T16:20:24.559Z,0.80
2019-05-26T16:22:55.758Z,0.90
2019-05-26T16:25:25.715Z,0.60
2019-05-26T16:27:55.707Z,0.90
2019-05-26T16:30:25.933Z,0.70
2019-05-26T16:32:56.192Z,0.80
2019-05-26T16:35:27.370Z,0.90
2019-05-26T16:37:57.137Z,0.70
2019-05-26T16:40:26.937Z,1.05
2019-05-26T16:42:56.924Z,0.60
2019-05-26T16:45:26.687Z,0.78
2019-05-26T16:47:56.555Z,0.62
2019-05-26T16:50:26.531Z,0.80
2019-05-26T16:52:56.435Z,0.50
2019-05-26T16:55:26.394Z,0.60
2019-05-26T16:57:56.330Z,0.70
2019-05-26T17:00:27.079Z,0.70
2019-05-26T17:02:57.773Z,1.22
2019-05-26T17:05:29.641Z,0.70
2019-05-26T17:08:00.028Z,0.75
2019-05-26T17:10:30.111Z,0.60
2019-05-26T17:13:00.024Z,0.68
2019-05-26T17:15:31.778Z,0.65
2019-05-26T17:18:01.554Z,0.80
2019-05-26T17:20:32.057Z,0.68
2019-05-26T17:23:02.054Z,0.90
2019-05-26T17:25:31.852Z,1.10
2019-05-26T17:28:01.649Z,1.20
2019-05-26T17:30:32.756Z,1.00
2019-05-26T17:33:02.577Z,1.17
2019-05-26T17:35:32.571Z,0.95
2019-05-26T17:38:02.512Z,0.90
2019-05-26T17:40:32.322Z,0.80
2019-05-26T17:43:02.115Z,0.60
2019-05-26T17:45:32.156Z,1.05
2019-05-26T17:48:01.941Z,1.00
2019-05-26T17:50:32.216Z,0.95
2019-05-26T17:53:02.142Z,0.50
2019-05-26T17:55:32.154Z,0.90
2019-05-26T17:58:02.002Z,0.85
2019-05-26T18:00:32.085Z,0.68
2019-05-26T18:03:02.494Z,0.80
2019-05-26T18:05:32.719Z,0.85
2019-05-26T18:08:02.635Z,0.90
2019-05-26T18:10:34.185Z,0.72
2019-05-26T18:13:04.688Z,0.82
2019-05-26T18:15:34.942Z,0.80
2019-05-26T18:18:04.951Z,0.70
2019-05-26T18:20:35.986Z,0.70
2019-05-26T18:23:05.934Z,0.70
2019-05-26T18:25:35.952Z,1.00
2019-05-26T18:28:06.020Z,1.00
2019-05-26T18:30:36.103Z,1.00
2019-05-26T18:33:06.539Z,0.95
2019-05-26T18:35:36.507Z,1.10
2019-05-26T18:38:08.390Z,0.60
2019-05-26T18:40:38.286Z,0.60
2019-05-26T18:43:08.173Z,0.68
2019-05-26T18:45:38.483Z,0.60
2019-05-26T18:48:09.593Z,0.78
2019-05-26T18:50:40.585Z,0.90
2019-05-26T18:53:10.966Z,0.90
2019-05-26T18:55:41.519Z,0.70
2019-05-26T18:58:11.476Z,0.93
2019-05-26T19:00:41.660Z,1.07
2019-05-26T19:03:11.830Z,1.10
2019-05-26T19:05:41.937Z,0.85
2019-05-26T19:08:12.731Z,0.90
2019-05-26T19:10:42.897Z,0.53
2019-05-26T19:13:13.122Z,0.68
2019-05-26T19:15:43.191Z,0.60
2019-05-26T19:18:19.824Z,1.22
2019-05-26T19:20:45.076Z,0.85
2019-05-26T19:23:15.050Z,0.93
2019-05-26T19:25:45.047Z,0.80
2019-05-26T19:28:15.118Z,0.93
2019-05-26T19:30:45.813Z,0.60
2019-05-26T19:33:16.079Z,0.80
2019-05-26T19:35:46.021Z,1.20
2019-05-26T19:38:16.184Z,0.93
2019-05-26T19:40:46.216Z,0.70
2019-05-26T19:43:16.198Z,0.88
2019-05-26T19:45:46.683Z,0.78
2019-05-26T19:48:17.034Z,0.60
2019-05-26T19:50:47.099Z,0.78
2019-05-26T19:53:17.112Z,1.00
2019-05-26T19:55:47.050Z,0.80
2019-05-26T19:58:17.046Z,0.72
2019-05-26T20:00:47.355Z,0.98
2019-05-26T20:03:17.295Z,1.00
2019-05-26T20:05:47.503Z,0.82
2019-05-26T20:08:23.479Z,0.93
2019-05-26T20:10:53.390Z,0.55
2019-05-26T20:13:23.289Z,1.00
2019-05-26T20:15:53.500Z,1.10
2019-05-26T20:18:23.414Z,0.93
2019-05-26T20:20:53.338Z,0.68
2019-05-26T20:23:23.252Z,1.07
2019-05-26T20:25:53.096Z,0.80
2019-05-26T20:28:22.891Z,0.85
2019-05-26T20:30:53.168Z,0.80
2019-05-26T20:33:22.982Z,1.02
2019-05-26T20:35:52.808Z,0.88
2019-05-26T20:38:22.926Z,0.80
2019-05-26T20:40:52.729Z,1.17
2019-05-26T20:43:25.047Z,1.05
2019-05-26T20:45:54.060Z,1.10
2019-05-26T20:48:23.911Z,1.10
2019-05-26T20:50:53.870Z,1.10
2019-05-26T20:53:23.678Z,0.75
2019-05-26T20:55:53.571Z,0.90
2019-05-26T20:58:23.400Z,0.70
2019-05-26T21:00:53.495Z,1.00
2019-05-26T21:03:23.500Z,0.90
2019-05-26T21:05:53.479Z,1.27
2019-05-26T21:08:23.785Z,1.20
2019-05-26T21:10:53.677Z,1.07
2019-05-26T21:13:23.731Z,0.93
2019-05-26T21:15:53.584Z,1.25
2019-05-26T21:18:23.499Z,0.90
2019-05-26T21:20:53.505Z,0.82
2019-05-26T21:23:23.341Z,1.00
2019-05-26T21:25:53.365Z,0.80
2019-05-26T21:28:23.513Z,1.10
2019-05-26T21:30:53.277Z,0.98
2019-05-26T21:33:23.060Z,1.02
2019-05-26T21:35:53.035Z,1.17
2019-05-26T21:38:23.285Z,0.80
2019-05-26T21:40:53.227Z,0.90
2019-05-26T21:43:23.361Z,1.22
2019-05-26T21:45:53.494Z,1.20
2019-05-26T21:48:23.305Z,1.02
2019-05-26T21:50:53.091Z,0.90
2019-05-26T21:53:22.777Z,1.05
2019-05-26T21:55:52.950Z,1.25
2019-05-26T21:58:22.817Z,1.15
2019-05-26T22:00:53.604Z,0.95
2019-05-26T22:03:23.718Z,1.15
2019-05-26T22:05:53.668Z,0.75
2019-05-26T22:08:23.821Z,0.90
2019-05-26T22:10:53.927Z,1.15
2019-05-26T22:13:23.982Z,1.62
2019-05-26T22:15:53.971Z,1.00
2019-05-26T22:18:23.957Z,1.20
2019-05-26T22:20:53.934Z,1.10
2019-05-26T22:23:24.088Z,1.02
2019-05-26T22:25:54.242Z,1.12
2019-05-26T22:28:25.178Z,1.65
2019-05-26T22:30:55.054Z,0.98
2019-05-26T22:33:24.951Z,0.90
2019-05-26T22:35:54.807Z,1.00
2019-05-26T22:38:24.618Z,0.80
2019-05-26T22:40:54.568Z,1.25
2019-05-26T22:43:25.644Z,1.20
2019-05-26T22:45:55.523Z,1.10
2019-05-26T22:48:25.357Z,1.15
2019-05-26T22:50:55.234Z,1.12
2019-05-26T22:53:25.163Z,1.07
2019-05-26T22:55:55.102Z,0.98
2019-05-26T22:58:25.017Z,0.70
2019-05-26T23:00:54.884Z,1.40
2019-05-26T23:03:24.699Z,1.30
2019-05-26T23:05:54.564Z,1.10
2019-05-26T23:08:24.417Z,1.00
2019-05-26T23:10:55.461Z,1.72
2019-05-26T23:13:25.427Z,1.10
2019-05-26T23:15:55.317Z,1.20
2019-05-26T23:18:25.227Z,0.90
2019-05-26T23:20:55.020Z,1.02
2019-05-26T23:23:24.916Z,1.10
2019-05-26T23:25:54.686Z,0.90
2019-05-26T23:28:24.461Z,0.82
2019-05-26T23:30:54.435Z,0.95
2019-05-26T23:33:24.205Z,1.27
2019-05-26T23:35:54.081Z,1.05
2019-05-26T23:38:24.244Z,0.90
2019-05-26T23:40:54.124Z,1.20
2019-05-26T23:43:24.315Z,1.35
2019-05-26T23:45:54.255Z,1.20
2019-05-26T23:48:24.084Z,1.20
2019-05-26T23:50:54.215Z,1.75
2019-05-26T23:53:24.027Z,1.42
2019-05-26T23:55:53.888Z,1.10
2019-05-26T23:58:23.755Z,1.70
